KRRT

Details ICAO KRRT
Name WARROAD INTL SWEDE CARLSON FIELD
Region United States
Timezone America/Chicago (UTC-6.0)
Plans Departing 0
Arriving 2
Stats Elevation 1,074 ft / 327 m (AMSL)
Location 48.940909° -95.347582°
Runways 2
Magnetic Variation 1.528° E
Sunrise 2017-12-16 14:10:57 UTC / 2017-12-16 08:10:57 Local
Sunset 2017-12-16 22:26:07 UTC / 2017-12-16 16:26:07 Local
Advertisement - Login to hide

Runways

ID Width Length Bearing (true) Bearing (mag) Surface Threshold Offset Overrun Length
04 150 ft / 46 m 2,995 ft / 913 m 43.81° 42.28° Grass 0 ft / 0 m 0 ft / 0 m
13 100 ft / 30 m 5,395 ft / 1,644 m 138.67° 137.14° Asphalt 0 ft / 0 m 0 ft / 0 m
22 150 ft / 46 m 2,995 ft / 913 m 223.82° 222.29° Grass 0 ft / 0 m 0 ft / 0 m
31 100 ft / 30 m 5,395 ft / 1,644 m 318.68° 317.15° Asphalt 0 ft / 0 m 0 ft / 0 m

Map

Weather


0- 5 10 15 20 25 30 35+ Temperature / ° C

Clouds and Precipitation
Forecast for 2017-12-16 18:00 UTC. Updated 2 hours ago

Ground ~20,000 ft ~40,000 ft Winds

METAR

KRRT 161655Z AUTO 11007KT 7SM OVC013 M13/M15 A2990 RMK AO2

TAF

Not found

Frequencies

Recorded 119.92 MHz AWOS 3
Unicom 123.05 MHz CTAF/UNICOM
Warning: Do not use this data for real-world aviation or navigation. No guarantee of current accuracy is given.